Time;durP1;ratioP1;P1;durP2;ratioP2;P2;SDS_P1;SDS_P2;PMS_P1;PMS_P2;Temp;Humidity;BMP_temperature;BMP_pressure;BME280_temperature;BME280_humidity;BME280_pressure;Samples;Min_cycle;Max_cycle;Signal;HPM_P1;HPM_P2
2021/05/18 00:01:09;;;;;;;11.17;5.17;;;;;;;24.24;36.53;98933.34;3325111;29;20302;-74
2021/05/18 00:02:50;;;;;;;15.87;4.60;;;;;;;24.23;36.52;98933.63;3326564;29;20046;-72
2021/05/18 00:04:31;;;;;;;16.30;5.47;;;;;;;24.21;36.14;98931.19;3324497;29;20054;-74
2021/05/18 00:06:12;;;;;;;11.90;5.47;;;;;;;24.21;36.80;98935.84;3321512;29;20578;-74
2021/05/18 00:08:02;;;;;;;14.70;5.30;;;;;;;24.18;36.54;98937.25;3324898;29;20042;-74
2021/05/18 00:11:43;;;;;;;15.13;5.18;;;;;;;24.13;36.55;98932.72;3325228;29;20046;-73
2021/05/18 00:13:25;;;;;;;13.65;5.13;;;;;;;24.13;36.83;98932.72;3325240;29;20038;-73
2021/05/18 00:15:18;;;;;;;19.05;5.45;;;;;;;24.12;36.43;98930.31;3325084;29;20162;-73
2021/05/18 00:16:59;;;;;;;9.13;4.13;;;;;;;24.07;36.41;98933.94;3320505;29;20095;-74
2021/05/18 00:18:41;;;;;;;17.00;5.30;;;;;;;24.03;36.81;98935.63;3333267;29;20046;-73
2021/05/18 00:20:22;;;;;;;;;;;;;;;24.06;36.54;98932.31;3337490;29;20072;-72
2021/05/18 00:22:03;;;;;;;14.07;4.93;;;;;;;23.94;36.84;98927.38;3335858;29;19931;-73
2021/05/18 00:23:43;;;;;;;9.27;4.70;;;;;;;23.91;36.95;98927.19;3325701;29;20510;-72
2021/05/18 00:25:25;;;;;;;16.00;4.83;;;;;;;23.92;36.95;98932.31;3326475;29;20054;-76
2021/05/18 00:27:29;;;;;;;14.93;4.95;;;;;;;23.92;37.02;98937.75;3318855;29;20043;-75
2021/05/18 00:29:15;;;;;;;10.25;4.88;;;;;;;23.91;37.42;98930.69;3331336;29;20148;-76
2021/05/18 00:30:57;;;;;;;12.10;5.57;;;;;;;23.90;37.42;98917.38;3324686;29;20042;-74
2021/05/18 00:32:41;;;;;;;13.50;4.70;;;;;;;23.91;37.54;98935.34;3323208;29;20494;-73
2021/05/18 00:34:25;;;;;;;11.32;4.90;;;;;;;23.90;37.49;98917.38;3328522;29;20140;-73
2021/05/18 00:36:15;;;;;;;18.02;4.93;;;;;;;23.91;37.15;98919.81;3336200;29;20050;-74
2021/05/18 00:37:56;;;;;;;;;;;;;;;23.95;36.91;98926.25;3336718;29;20046;-75
2021/05/18 00:39:37;;;;;;;11.23;4.50;;;;;;;23.86;37.02;98922.63;3336150;29;19920;-72
2021/05/18 00:41:18;;;;;;;15.00;5.13;;;;;;;23.85;37.09;98931.91;3336908;29;20450;-73
2021/05/18 00:43:13;;;;;;;16.58;5.38;;;;;;;23.80;37.04;98926.56;3316298;29;20092;-73
2021/05/18 00:44:54;;;;;;;9.63;4.37;;;;;;;23.77;36.90;98926.34;3324576;29;20119;-73
2021/05/18 00:46:35;;;;;;;13.30;5.43;;;;;;;23.73;36.86;98928.88;3324144;29;20111;-72
2021/05/18 00:48:18;;;;;;;16.23;4.82;;;;;;;23.69;36.90;98930.53;3323786;29;20085;-73
2021/05/18 00:49:59;;;;;;;9.68;5.07;;;;;;;23.64;37.01;98919.75;3324754;29;20042;-73
2021/05/18 00:51:40;;;;;;;10.13;4.40;;;;;;;23.63;36.94;98923.56;3323578;29;20088;-73
2021/05/18 00:53:22;;;;;;;10.98;5.03;;;;;;;23.60;36.91;98927.72;3308380;29;20141;-72
2021/05/18 00:55:19;;;;;;;12.63;4.95;;;;;;;23.59;37.47;98923.34;3320645;29;20038;-74
2021/05/18 00:59:03;;;;;;;15.73;5.28;;;;;;;23.59;37.15;98928.78;3325938;29;20422;-72
2021/05/18 01:00:44;;;;;;;13.13;5.55;;;;;;;23.57;37.56;98922.03;3326122;29;20053;-74
2021/05/18 01:02:25;;;;;;;23.02;5.78;;;;;;;23.55;37.50;98921.56;3326528;29;20049;-74
2021/05/18 01:04:13;;;;;;;10.40;5.70;;;;;;;23.56;37.53;98925.88;3322287;29;20102;-74
2021/05/18 01:07:53;;;;;;;14.30;4.88;;;;;;;23.49;37.63;98918.91;3326694;29;20081;-75
2021/05/18 01:09:34;;;;;;;10.93;5.23;;;;;;;23.47;37.70;98926.56;3325928;29;20521;-73
2021/05/18 01:11:16;;;;;;;17.60;5.13;;;;;;;23.45;37.87;98923.34;3323298;29;20422;-77
2021/05/18 01:13:15;;;;;;;23.73;6.10;;;;;;;23.44;38.01;98927.16;3338197;29;20461;-74
2021/05/18 01:14:55;;;;;;;11.30;4.70;;;;;;;23.43;38.65;98935.63;3327816;29;20196;-73
2021/05/18 01:16:41;;;;;;;10.30;5.00;;;;;;;23.40;38.11;98931.56;3326587;29;20046;-73
2021/05/18 01:18:21;;;;;;;18.40;5.30;;;;;;;23.42;37.93;98932.09;3325813;29;20399;-73
2021/05/18 01:20:13;;;;;;;13.83;5.40;;;;;;;23.39;37.89;98929.97;3326252;29;20046;-76
2021/05/18 01:21:56;;;;;;;9.82;4.95;;;;;;;23.37;37.74;98926.75;3327217;29;20105;-74
2021/05/18 01:23:37;;;;;;;13.82;5.38;;;;;;;23.34;37.86;98924.63;3325214;29;20065;-73
2021/05/18 01:25:20;;;;;;;14.90;5.72;;;;;;;23.30;37.89;98926.31;3328120;29;20508;-73
2021/05/18 01:27:01;;;;;;;11.43;4.63;;;;;;;23.29;37.87;98933.66;3329248;29;20164;-73
2021/05/18 01:28:43;;;;;;;17.27;5.03;;;;;;;23.28;37.87;98931.22;3313800;29;20180;-73
2021/05/18 01:30:24;;;;;;;12.52;5.13;;;;;;;23.25;37.97;98929.09;3323285;29;20053;-73
2021/05/18 01:32:08;;;;;;;8.20;4.80;;;;;;;23.24;37.99;98933.75;3323793;29;20072;-74
2021/05/18 01:33:50;;;;;;;14.52;5.20;;;;;;;23.23;38.06;98931.31;3326078;29;20043;-72
2021/05/18 01:35:31;;;;;;;13.93;5.35;;;;;;;23.21;38.01;98928.91;3324610;29;20137;-72
2021/05/18 01:37:12;;;;;;;9.48;4.65;;;;;;;23.18;38.10;98928.69;3322818;29;20538;-73
2021/05/18 01:42:56;;;;;;;10.63;4.85;;;;;;;23.15;38.40;98932.00;3325343;29;20046;-74
2021/05/18 01:44:37;;;;;;;11.80;4.90;;;;;;;23.19;38.85;98935.75;3336864;29;20046;-72
2021/05/18 01:46:20;;;;;;;16.47;5.73;;;;;;;23.19;38.58;98935.75;3328335;29;20046;-73
2021/05/18 01:48:09;;;;;;;13.63;5.53;;;;;;;23.16;38.21;98937.16;3326092;29;20055;-72
2021/05/18 01:49:53;;;;;;;11.75;4.82;;;;;;;23.16;38.62;98937.16;3325572;29;20438;-73
2021/05/18 01:51:40;;;;;;;15.07;5.30;;;;;;;23.16;38.63;98937.16;3322916;29;20130;-73
2021/05/18 01:53:21;;;;;;;10.73;5.28;;;;;;;23.14;38.66;98944.78;3323728;29;20422;-74
2021/05/18 01:55:04;;;;;;;13.13;4.32;;;;;;;23.10;38.36;98945.66;3323486;29;20050;-73
2021/05/18 01:58:52;;;;;;;14.18;5.38;;;;;;;23.01;38.25;98940.91;3324626;29;20049;-74
2021/05/18 02:00:43;;;;;;;15.35;5.22;;;;;;;23.02;38.38;98953.38;3338443;29;20057;-74
2021/05/18 02:02:36;;;;;;;9.82;5.10;;;;;;;22.92;38.24;98936.38;3326050;29;20046;-73
2021/05/18 02:04:50;;;;;;;11.55;5.38;;;;;;;23.03;38.75;98954.22;3322939;29;20053;-72
2021/05/18 02:06:36;;;;;;;9.82;4.97;;;;;;;23.04;38.45;98961.25;3323937;29;20046;-74
2021/05/18 02:08:24;;;;;;;12.23;5.07;;;;;;;23.06;38.49;98959.03;3315215;29;20054;-74
2021/05/18 02:10:14;;;;;;;11.07;4.65;;;;;;;23.06;38.29;98967.19;3313782;29;20147;-74
2021/05/18 02:12:04;;;;;;;11.88;4.80;;;;;;;23.05;38.30;98957.41;3312956;29;20111;-73
2021/05/18 02:13:49;;;;;;;7.97;4.43;;;;;;;23.05;38.37;98962.84;3318321;29;20040;-74
2021/05/18 02:15:43;;;;;;;13.63;5.33;;;;;;;23.02;38.72;98952.56;3312900;29;20043;-73
2021/05/18 02:17:36;;;;;;;13.30;5.75;;;;;;;22.97;38.36;98950.72;3313641;29;20314;-75
2021/05/18 02:19:28;;;;;;;17.35;6.18;;;;;;;23.05;38.60;98951.97;3323026;29;20046;-76
2021/05/18 02:25:27;;;;;;;9.93;5.85;;;;;;;23.08;38.53;98957.66;3325111;29;20574;-74
2021/05/18 02:27:19;;;;;;;13.75;5.13;;;;;;;23.05;38.50;98958.25;3324659;29;20038;-74
2021/05/18 02:29:00;;;;;;;10.20;5.22;;;;;;;23.09;38.65;98958.44;3324159;29;20034;-73
2021/05/18 02:30:41;;;;;;;13.47;4.67;;;;;;;23.10;38.98;98956.53;3322507;29;20098;-72
2021/05/18 02:32:26;;;;;;;11.43;4.80;;;;;;;23.10;38.73;98956.53;3335715;29;20041;-71
2021/05/18 02:34:22;;;;;;;12.48;4.97;;;;;;;23.09;38.61;98958.44;3324788;29;20096;-73
2021/05/18 02:36:04;;;;;;;12.80;4.70;;;;;;;23.11;38.76;98958.16;3325817;29;20054;-73
2021/05/18 02:37:49;;;;;;;11.45;4.50;;;;;;;23.06;38.75;98948.19;3312086;29;20047;-73
2021/05/18 02:39:31;;;;;;;13.60;5.07;;;;;;;23.11;38.79;98955.44;3320618;29;20086;-74
2021/05/18 02:41:13;;;;;;;13.65;5.28;;;;;;;23.11;38.50;98953.53;3322672;29;20506;-73
2021/05/18 02:42:55;;;;;;;12.57;5.15;;;;;;;23.14;38.60;98960.28;3325968;29;20150;-74
2021/05/18 02:50:10;;;;;;;19.27;5.38;;;;;;;23.11;38.59;98953.53;3337511;29;20049;-72
2021/05/18 02:51:52;;;;;;;10.93;5.30;;;;;;;23.13;38.92;98955.94;3338499;29;20583;-72
2021/05/18 02:53:34;;;;;;;13.27;5.22;;;;;;;23.16;38.75;98953.47;3337930;29;20042;-73
2021/05/18 02:55:27;;;;;;;10.77;5.20;;;;;;;23.21;39.39;98955.28;3338340;29;20050;-72
2021/05/18 02:57:10;;;;;;;14.38;4.20;;;;;;;23.24;39.12;98957.41;3338291;29;20056;-72
2021/05/18 02:59:16;;;;;;;17.08;5.50;;;;;;;23.26;38.73;98960.66;3334937;29;20088;-72
2021/05/18 03:00:53;;;;;;;16.13;4.88;;;;;;;23.26;39.04;98963.38;3325118;29;20051;-73
2021/05/18 03:02:35;;;;;;;12.13;5.27;;;;;;;23.31;38.99;98965.97;3325651;29;20592;-73
2021/05/18 03:04:16;;;;;;;13.70;4.40;;;;;;;23.31;38.83;98965.97;3324826;29;20046;-73
2021/05/18 03:05:57;;;;;;;14.55;4.88;;;;;;;23.32;38.62;98966.81;3322413;29;20082;-73
2021/05/18 03:07:38;;;;;;;9.53;4.23;;;;;;;23.27;38.66;98957.63;3325654;29;20414;-73
2021/05/18 03:09:20;;;;;;;13.17;5.23;;;;;;;23.29;38.65;98960.84;3325495;29;20038;-74
2021/05/18 03:11:01;;;;;;;13.27;5.20;;;;;;;23.35;38.56;98966.22;3326234;29;20054;-74
2021/05/18 03:12:42;;;;;;;13.77;5.33;;;;;;;23.36;38.57;98971.34;3324636;29;20049;-74
2021/05/18 03:14:23;;;;;;;15.63;5.03;;;;;;;23.29;38.43;98957.34;3325380;29;20073;-74
2021/05/18 03:16:04;;;;;;;15.83;5.17;;;;;;;23.36;38.77;98973.25;3325697;29;20058;-73
2021/05/18 03:17:45;;;;;;;12.02;4.75;;;;;;;23.39;39.38;98968.06;3325072;29;20134;-73
2021/05/18 03:19:26;;;;;;;14.50;4.63;;;;;;;23.45;39.02;98966.84;3324612;29;20446;-73
2021/05/18 03:21:07;;;;;;;10.93;4.47;;;;;;;23.44;38.69;98959.81;3324592;29;20042;-73
2021/05/18 03:22:47;;;;;;;12.40;4.23;;;;;;;23.51;39.12;98964.84;3325683;29;20593;-72
2021/05/18 03:24:28;;;;;;;13.10;3.97;;;;;;;23.50;38.76;98958.59;3325665;29;20046;-74
2021/05/18 03:26:09;;;;;;;14.37;4.87;;;;;;;23.56;39.05;98963.97;3325330;29;20502;-75
2021/05/18 03:27:51;;;;;;;9.13;3.73;;;;;;;23.59;39.32;98974.25;3325156;29;20042;-75
2021/05/18 03:29:33;;;;;;;15.60;5.65;;;;;;;23.63;39.13;98967.09;3325302;29;20506;-73
2021/05/18 03:35:13;;;;;;;10.07;4.20;;;;;;;23.78;39.26;98976.97;3325392;29;20056;-74
2021/05/18 03:36:55;;;;;;;9.40;4.63;;;;;;;23.80;39.52;98961.13;3324686;29;20053;-73
2021/05/18 03:38:41;;;;;;;12.70;5.03;;;;;;;23.91;39.32;98971.53;3325166;29;20047;-74
2021/05/18 03:40:24;;;;;;;9.27;4.13;;;;;;;23.93;39.03;98977.47;3324417;29;20474;-73
2021/05/18 03:42:11;;;;;;;16.63;4.55;;;;;;;23.91;38.46;98971.53;3325137;29;20164;-72
2021/05/18 03:45:36;;;;;;;12.07;4.53;;;;;;;23.93;38.45;98971.22;3325260;29;20046;-73
2021/05/18 03:58:34;;;;;;;7.72;3.40;;;;;;;24.06;38.65;98975.88;3324158;29;20042;-76
2021/05/18 04:02:41;;;;;;;20.60;5.15;;;;;;;24.11;38.20;98977.69;3324835;29;20148;-74
2021/05/18 04:03:50;;;;;;;11.52;5.15;;;;;;;24.17;37.85;98979.22;3325195;29;20050;-72
2021/05/18 04:17:30;;;;;;;11.40;4.80;;;;;;;24.46;37.94;98983.59;3323659;29;20050;-76
2021/05/18 04:19:13;;;;;;;12.68;4.30;;;;;;;24.48;37.83;98978.63;3323716;29;20113;-73
2021/05/18 04:26:36;;;;;;;13.68;4.38;;;;;;;24.67;38.27;98981.22;3325133;29;20078;-73
2021/05/18 04:59:55;;;;;;;12.48;4.70;;;;;;;25.64;36.80;98968.91;3312589;29;20050;-74
2021/05/18 05:07:12;;;;;;;13.05;4.78;;;;;;;25.83;36.42;98970.59;3324502;29;20053;-75
2021/05/18 05:09:41;;;;;;;16.85;5.10;;;;;;;25.90;36.43;98960.06;3324598;29;20048;-73
2021/05/18 05:14:48;;;;;;;10.10;5.10;;;;;;;26.09;36.46;98968.81;3320231;29;20085;-74
2021/05/18 05:16:29;;;;;;;9.03;4.43;;;;;;;26.15;36.52;98969.50;3311320;29;20054;-74
2021/05/18 05:18:11;;;;;;;17.48;5.75;;;;;;;26.21;36.17;98965.50;3311702;29;20050;-73
2021/05/18 05:19:52;;;;;;;16.87;4.73;;;;;;;26.24;36.14;98964.06;3312179;29;20498;-73
2021/05/18 05:21:34;;;;;;;8.40;3.90;;;;;;;26.37;36.53;98974.06;3312055;29;20104;-72
2021/05/18 05:23:16;;;;;;;12.85;5.63;;;;;;;26.43;36.10;98961.88;3323127;29;20061;-73
2021/05/18 05:24:56;;;;;;;19.92;5.35;;;;;;;26.45;35.93;98956.88;3323928;29;20053;-73
2021/05/18 05:26:38;;;;;;;13.40;4.57;;;;;;;26.53;35.77;98961.59;3324220;29;20050;-73
2021/05/18 05:28:20;;;;;;;16.70;4.82;;;;;;;26.58;35.82;98957.13;3324332;29;20069;-74
2021/05/18 05:30:01;;;;;;;21.67;5.68;;;;;;;26.63;35.59;98959.69;3324308;29;20042;-73
2021/05/18 05:31:43;;;;;;;17.13;4.93;;;;;;;26.70;35.53;98968.25;3324767;29;20544;-74
2021/05/18 05:33:24;;;;;;;17.17;4.43;;;;;;;26.79;35.79;98960.03;3323836;29;20046;-73
2021/05/18 05:35:05;;;;;;;16.70;4.43;;;;;;;26.83;34.99;98964.56;3324524;29;20043;-73
2021/05/18 05:36:47;;;;;;;14.32;4.18;;;;;;;26.87;35.11;98965.50;3323466;29;20042;-72
2021/05/18 05:38:30;;;;;;;17.63;5.45;;;;;;;26.91;35.53;98963.75;3323855;29;20474;-71
2021/05/18 05:40:13;;;;;;;16.85;5.43;;;;;;;26.96;34.99;98958.13;3324343;29;20522;-73
2021/05/18 05:41:58;;;;;;;18.05;4.97;;;;;;;27.03;35.03;98959.56;3324817;29;20125;-72
2021/05/18 05:43:39;;;;;;;20.10;5.18;;;;;;;27.05;34.80;98951.84;3326383;29;20046;-74
2021/05/18 05:45:20;;;;;;;26.80;5.17;;;;;;;27.08;34.62;98965.69;3326286;29;20179;-73
2021/05/18 05:47:01;;;;;;;16.92;5.13;;;;;;;27.12;34.76;98955.72;3327172;29;20416;-74
2021/05/18 05:48:43;;;;;;;11.73;5.03;;;;;;;27.17;34.52;98954.75;3326102;29;20054;-73
2021/05/18 05:50:23;;;;;;;15.55;4.93;;;;;;;27.22;34.44;98949.13;3325894;29;20390;-72
2021/05/18 05:52:07;;;;;;;15.82;5.03;;;;;;;27.27;34.41;98950.91;3328439;29;20490;-73
2021/05/18 05:53:48;;;;;;;10.48;4.60;;;;;;;27.32;34.85;98948.81;3337241;29;20050;-73
2021/05/18 05:55:30;;;;;;;13.98;5.88;;;;;;;27.40;34.62;98955.41;3338649;29;20421;-74
2021/05/18 05:57:12;;;;;;;16.48;5.07;;;;;;;27.43;34.44;98954.75;3338702;29;20123;-74
2021/05/18 05:58:53;;;;;;;19.75;4.35;;;;;;;27.41;34.11;98944.09;3339282;29;20061;-76
2021/05/18 06:00:36;;;;;;;24.50;6.40;;;;;;;27.47;34.07;98946.69;3329724;29;20045;-73
2021/05/18 06:02:17;;;;;;;19.80;6.72;;;;;;;27.52;34.04;98951.97;3320903;29;20447;-72
2021/05/18 06:04:00;;;;;;;17.53;4.67;;;;;;;27.57;34.01;98943.59;3324817;29;20046;-72
2021/05/18 06:05:41;;;;;;;16.35;4.70;;;;;;;27.64;34.26;98949.38;3325058;29;20046;-73
2021/05/18 06:07:22;;;;;;;19.65;5.18;;;;;;;27.73;33.65;98954.84;3323722;29;20038;-73
2021/05/18 06:09:04;;;;;;;14.07;4.70;;;;;;;27.75;33.88;98945.19;3321370;29;20057;-72
2021/05/18 06:10:47;;;;;;;14.82;4.95;;;;;;;27.83;33.74;98943.56;3320722;29;20086;-74
2021/05/18 06:47:29;;;;;;;19.13;5.20;;;;;;;30.09;32.17;98949.28;3318014;29;20093;-74
2021/05/18 06:49:09;;;;;;;14.93;4.88;;;;;;;30.18;32.02;98949.97;3325013;29;20129;-74
2021/05/18 06:50:50;;;;;;;14.77;4.87;;;;;;;30.29;32.65;98942.88;3323050;29;20189;-74
2021/05/18 06:52:31;;;;;;;14.93;5.33;;;;;;;30.38;32.33;98946.31;3320733;29;20061;-75
2021/05/18 06:54:12;;;;;;;12.48;5.35;;;;;;;30.39;31.99;98939.66;3322366;29;20349;-75
2021/05/18 06:55:57;;;;;;;23.90;6.17;;;;;;;30.53;32.16;98946.75;3325104;29;20098;-74
2021/05/18 06:57:44;;;;;;;15.05;4.47;;;;;;;30.67;32.09;98952.72;3325600;29;20422;-75
2021/05/18 07:01:09;;;;;;;17.15;6.10;;;;;;;30.83;31.35;98950.06;3326806;29;20046;-75
2021/05/18 07:02:52;;;;;;;20.08;5.97;;;;;;;30.85;31.07;98951.31;3319367;29;20064;-76
2021/05/18 07:04:36;;;;;;;23.15;5.90;;;;;;;30.95;31.16;98943.72;3316372;29;20510;-75
2021/05/18 07:09:53;;;;;;;17.17;5.32;;;;;;;31.25;30.95;98931.19;3317060;29;20039;-74
2021/05/18 07:11:33;;;;;;;11.00;4.85;;;;;;;31.34;30.57;98946.75;3319904;29;20643;-74
2021/05/18 07:13:15;;;;;;;15.00;5.53;;;;;;;31.39;30.33;98933.59;3320562;29;20695;-74
2021/05/18 07:14:58;;;;;;;18.67;6.03;;;;;;;31.51;30.47;98946.47;3325369;29;20169;-74
2021/05/18 07:16:39;;;;;;;25.75;7.25;;;;;;;31.62;30.51;98941.25;3324782;29;20145;-73
2021/05/18 07:18:20;;;;;;;17.03;5.60;;;;;;;31.69;30.65;98945.00;3316105;29;20402;-74
2021/05/18 07:20:00;;;;;;;15.60;6.35;;;;;;;31.80;30.21;98949.97;3317047;29;20085;-74
2021/05/18 07:21:42;;;;;;;22.98;6.43;;;;;;;31.82;29.93;98955.94;3313873;29;20074;-74
2021/05/18 07:23:25;;;;;;;23.33;8.13;;;;;;;31.85;29.77;98945.00;3312062;29;20046;-76
2021/05/18 07:25:06;;;;;;;17.27;6.57;;;;;;;31.93;29.78;98957.03;3316515;29;20042;-77
2021/05/18 07:26:47;;;;;;;19.17;7.03;;;;;;;32.01;29.74;98949.75;3326053;29;20058;-76
2021/05/18 07:28:31;;;;;;;17.52;6.18;;;;;;;32.11;29.88;98952.75;3335616;29;20061;-76
2021/05/18 07:30:13;;;;;;;15.93;6.63;;;;;;;32.22;29.88;98957.75;3337763;29;20054;-75
2021/05/18 07:31:53;;;;;;;12.80;6.40;;;;;;;32.33;29.95;98947.78;3324130;29;20042;-75
2021/05/18 07:33:35;;;;;;;15.93;7.72;;;;;;;32.43;29.62;98950.00;3320984;29;20061;-73
2021/05/18 07:35:15;;;;;;;17.75;7.25;;;;;;;32.53;29.69;98949.47;3322464;29;20050;-73
2021/05/18 07:36:57;;;;;;;23.02;7.82;;;;;;;32.63;29.15;98950.84;3319062;29;20452;-73
2021/05/18 07:38:40;;;;;;;17.75;6.28;;;;;;;32.70;29.07;98952.97;3323874;29;20499;-74
2021/05/18 07:40:21;;;;;;;20.08;7.13;;;;;;;32.80;28.76;98949.66;3324825;29;20076;-74
2021/05/18 07:42:01;;;;;;;19.10;6.83;;;;;;;32.87;28.63;98952.56;3332502;29;20045;-74
2021/05/18 07:43:42;;;;;;;14.93;8.63;;;;;;;32.98;28.78;98936.22;3338007;29;20295;-75
2021/05/18 07:45:27;;;;;;;18.93;7.03;;;;;;;33.03;28.76;98944.25;3329039;29;20299;-75
2021/05/18 07:47:10;;;;;;;15.13;7.57;;;;;;;33.10;28.37;98940.84;3325124;29;20050;-75
2021/05/18 07:50:48;;;;;;;15.93;7.25;;;;;;;33.14;28.86;98939.72;3319938;29;20117;-75
2021/05/18 08:00:40;;;;;;;20.23;7.03;;;;;;;33.43;28.01;98927.28;3323493;29;20054;-74
2021/05/18 08:06:19;;;;;;;13.60;5.38;;;;;;;33.65;27.19;98942.31;3323424;29;20129;-74
2021/05/18 08:08:01;;;;;;;18.38;6.85;;;;;;;33.72;27.03;98960.19;3322252;29;20050;-73
2021/05/18 08:09:46;;;;;;;14.57;5.32;;;;;;;33.75;27.09;98948.41;3327382;29;20465;-73
2021/05/18 08:11:27;;;;;;;14.07;5.50;;;;;;;33.81;27.05;98939.41;3331029;29;20043;-75
2021/05/18 08:13:09;;;;;;;14.65;5.47;;;;;;;33.82;26.52;98938.25;3325936;29;20140;-75
2021/05/18 08:18:52;;;;;;;16.67;6.03;;;;;;;34.07;26.66;98943.44;3326340;29;20039;-72
2021/05/18 08:58:38;;;;;;;24.17;6.22;;;;;;;35.46;24.48;98924.34;3320084;29;20050;-75
2021/05/18 09:33:13;;;;;;;15.95;5.78;;;;;;;36.75;24.51;98931.72;3326619;29;20795;-74
2021/05/18 10:17:01;;;;;;;18.15;4.60;;;;;;;37.04;20.75;98910.44;3325721;29;20042;-72
2021/05/18 10:22:38;;;;;;;13.90;3.97;;;;;;;36.88;21.27;98902.44;3317123;29;20054;-72
2021/05/18 10:34:34;;;;;;;15.23;4.53;;;;;;;37.43;20.94;98900.59;3331554;29;20064;-73
2021/05/18 10:36:32;;;;;;;14.20;4.03;;;;;;;37.37;20.60;98885.53;3336839;29;20053;-72
2021/05/18 10:38:28;;;;;;;11.00;3.88;;;;;;;37.23;20.91;98889.88;3334569;29;20569;-71
2021/05/18 10:40:25;;;;;;;14.40;4.15;;;;;;;37.24;20.06;98891.44;3329800;29;20050;-72
2021/05/18 10:42:12;;;;;;;17.10;4.65;;;;;;;37.06;20.08;98890.63;3331582;29;20049;-72
2021/05/18 10:44:00;;;;;;;12.85;3.88;;;;;;;37.05;19.56;98880.69;3335547;29;20069;-72
2021/05/18 10:46:00;;;;;;;16.65;3.60;;;;;;;37.11;20.41;98884.66;3333831;29;20114;-76
2021/05/18 10:47:44;;;;;;;17.52;4.47;;;;;;;37.02;19.89;98881.44;3331581;29;20069;-74
2021/05/18 10:49:40;;;;;;;14.63;4.15;;;;;;;37.01;19.76;98863.19;3333747;29;20045;-74
2021/05/18 10:51:44;;;;;;;21.27;5.00;;;;;;;37.18;20.11;98856.91;3324749;29;20509;-73
2021/05/18 10:53:27;;;;;;;15.82;4.35;;;;;;;37.35;20.14;98860.09;3337941;29;20038;-73
2021/05/18 10:55:08;;;;;;;10.85;3.70;;;;;;;37.44;19.75;98860.50;3331664;29;20041;-74
2021/05/18 10:56:53;;;;;;;15.52;4.32;;;;;;;37.52;19.28;98859.34;3334411;29;20038;-74
2021/05/18 10:58:34;;;;;;;19.80;4.43;;;;;;;37.57;19.56;98861.75;3336809;29;20475;-74
2021/05/18 11:00:15;;;;;;;15.23;4.43;;;;;;;37.64;19.23;98872.88;3338315;29;20085;-75
2021/05/18 11:02:19;;;;;;;16.27;4.18;;;;;;;37.70;19.66;98868.50;3338170;29;20044;-73
2021/05/18 11:04:00;;;;;;;15.55;4.28;;;;;;;37.67;20.09;98866.50;3325113;29;20081;-74
2021/05/18 11:05:41;;;;;;;15.85;4.13;;;;;;;37.65;19.66;98857.75;3337335;29;20038;-74
2021/05/18 11:07:29;;;;;;;19.15;4.95;;;;;;;37.65;19.61;98863.31;3332786;29;20445;-73
2021/05/18 11:09:17;;;;;;;16.30;4.32;;;;;;;37.63;19.20;98862.91;3335624;29;20068;-74
2021/05/18 11:10:58;;;;;;;20.98;4.80;;;;;;;37.64;19.53;98856.19;3336691;29;20042;-74
2021/05/18 11:12:38;;;;;;;17.00;4.65;;;;;;;37.60;19.62;98866.50;3336072;29;20505;-74
2021/05/18 11:14:19;;;;;;;19.30;4.07;;;;;;;37.51;19.38;98846.63;3333153;29;20046;-74
2021/05/18 11:16:00;;;;;;;21.70;4.68;;;;;;;37.43;19.40;98867.25;3336366;29;20144;-74
2021/05/18 11:17:43;;;;;;;22.30;4.57;;;;;;;37.41;19.32;98847.38;3335067;29;20069;-72
2021/05/18 11:19:23;;;;;;;15.70;4.35;;;;;;;37.36;19.04;98850.56;3336370;29;20045;-71
2021/05/18 11:21:12;;;;;;;18.63;5.20;;;;;;;37.25;19.07;98851.38;3335311;29;20080;-73
2021/05/18 11:23:22;;;;;;;14.57;3.97;;;;;;;37.22;19.17;98840.22;3336928;29;20441;-72
2021/05/18 11:25:04;;;;;;;17.95;4.00;;;;;;;37.24;19.66;98846.97;3337004;29;20057;-73
2021/05/18 11:26:49;;;;;;;20.45;4.30;;;;;;;37.33;19.27;98825.16;3336006;29;20527;-74
2021/05/18 11:28:40;;;;;;;16.20;4.88;;;;;;;37.52;18.84;98851.00;3336949;29;20464;-74
2021/05/18 11:30:26;;;;;;;18.48;5.15;;;;;;;37.62;19.51;98830.75;3336847;29;20057;-76
2021/05/18 11:32:09;;;;;;;18.45;4.43;;;;;;;37.66;19.00;98841.88;3351620;29;20042;-75
2021/05/18 11:33:56;;;;;;;17.92;4.38;;;;;;;37.60;18.58;98838.69;3337416;29;20049;-75
2021/05/18 11:35:37;;;;;;;21.00;4.60;;;;;;;37.53;18.21;98836.69;3337562;29;20045;-75
2021/05/18 11:37:18;;;;;;;23.23;4.40;;;;;;;37.53;18.27;98822.78;3337293;29;20046;-73
2021/05/18 11:39:11;;;;;;;22.17;4.45;;;;;;;37.39;19.44;98810.88;3335749;29;20054;-75
2021/05/18 11:40:52;;;;;;;19.42;4.30;;;;;;;37.44;18.76;98863.28;3337412;29;20076;-72
2021/05/18 11:42:33;;;;;;;24.80;4.70;;;;;;;37.36;18.99;98826.34;3337369;29;20045;-72
2021/05/18 11:44:14;;;;;;;15.70;3.85;;;;;;;37.29;18.52;98835.47;3337576;29;20050;-74
2021/05/18 11:46:14;;;;;;;24.45;4.28;;;;;;;37.23;18.56;98828.72;3337224;29;20046;-73
2021/05/18 11:47:55;;;;;;;14.00;4.13;;;;;;;37.17;19.34;98821.94;3335514;29;20110;-73
2021/05/18 11:49:35;;;;;;;18.33;3.83;;;;;;;37.22;19.58;98820.78;3336465;29;20083;-73
2021/05/18 11:51:16;;;;;;;15.52;4.75;;;;;;;37.26;19.82;98830.72;3336761;29;20257;-75
2021/05/18 11:52:57;;;;;;;20.90;4.60;;;;;;;37.24;19.63;98805.28;3337610;29;20485;-74
2021/05/18 11:54:38;;;;;;;20.38;4.75;;;;;;;37.24;19.41;98816.41;3337750;29;20426;-74
2021/05/18 11:56:29;;;;;;;23.35;4.85;;;;;;;37.29;19.15;98816.00;3335264;29;20585;-74
2021/05/18 11:58:15;;;;;;;14.23;3.25;;;;;;;37.32;19.67;98811.66;3333989;29;20048;-75
2021/05/18 11:59:56;;;;;;;17.85;3.97;;;;;;;37.24;19.26;98813.63;3337320;29;20048;-74
2021/05/18 12:01:40;;;;;;;23.95;4.43;;;;;;;37.26;19.56;98816.81;3334111;29;20552;-73
2021/05/18 12:03:21;;;;;;;17.35;3.78;;;;;;;37.29;19.50;98815.22;3334010;29;20057;-74
2021/05/18 12:05:05;;;;;;;10.45;3.88;;;;;;;37.40;19.34;98818.00;3337153;29;20038;-75
2021/05/18 12:06:58;;;;;;;16.73;3.38;;;;;;;37.45;19.35;98832.31;3333238;29;20148;-73
2021/05/18 12:08:39;;;;;;;22.25;4.90;;;;;;;37.38;19.91;98818.38;3337077;29;20058;-75
2021/05/18 12:10:27;;;;;;;14.85;3.55;;;;;;;37.28;18.89;98808.06;3337523;29;20049;-74
2021/05/18 12:12:15;;;;;;;27.98;5.03;;;;;;;37.24;18.94;98816.41;3333349;29;20034;-75
2021/05/18 12:13:56;;;;;;;15.57;3.78;;;;;;;37.26;18.85;98813.25;3336755;29;20398;-74
2021/05/18 12:15:37;;;;;;;16.00;4.43;;;;;;;37.22;19.01;98810.44;3336910;29;20073;-73
2021/05/18 12:17:25;;;;;;;18.20;3.60;;;;;;;37.20;19.03;98798.94;3336264;29;20493;-73
2021/05/18 12:19:06;;;;;;;20.02;5.22;;;;;;;37.10;19.18;98797.75;3332382;29;20046;-74
2021/05/18 12:20:47;;;;;;;12.90;3.78;;;;;;;37.05;19.09;98781.47;3336989;29;20137;-74
2021/05/18 12:22:28;;;;;;;21.33;4.13;;;;;;;36.96;19.54;98806.00;3337232;29;20102;-76
2021/05/18 12:24:09;;;;;;;;;;;;;;;37.00;19.37;98815.16;3336035;29;20041;-75
2021/05/18 12:25:49;;;;;;;14.03;3.90;;;;;;;36.65;19.17;98802.75;3336090;29;19924;-75
2021/05/18 12:27:30;;;;;;;14.00;3.47;;;;;;;36.46;19.69;98823.28;3336795;29;20090;-74
2021/05/18 12:29:11;;;;;;;26.55;4.38;;;;;;;36.23;19.31;98814.47;3335238;29;20104;-72
2021/05/18 12:30:55;;;;;;;14.10;3.50;;;;;;;36.00;19.56;98796.06;3333055;29;20050;-73
2021/05/18 12:32:48;;;;;;;23.70;4.60;;;;;;;35.79;19.65;98782.88;3336897;29;20050;-70
2021/05/18 12:34:30;;;;;;;20.70;3.97;;;;;;;35.62;20.04;98808.47;3337127;29;20046;-70
2021/05/18 12:36:12;;;;;;;19.45;3.97;;;;;;;35.44;20.32;98802.75;3330488;29;20053;-70
2021/05/18 12:37:54;;;;;;;24.00;3.85;;;;;;;35.29;19.78;98789.97;3325151;29;20043;-69
2021/05/18 12:39:41;;;;;;;15.30;3.40;;;;;;;35.14;20.49;98784.31;3324580;29;20061;-71
2021/05/18 12:41:22;;;;;;;23.80;4.05;;;;;;;34.96;20.31;98811.00;3325291;29;20142;-72
2021/05/18 12:43:14;;;;;;;13.45;4.05;;;;;;;34.78;20.28;98783.13;3323548;29;20047;-72
2021/05/18 12:44:57;;;;;;;17.15;3.50;;;;;;;34.47;20.39;98789.88;3323866;29;20046;-73
2021/05/18 12:47:06;;;;;;;31.73;4.45;;;;;;;34.31;20.37;98788.09;3322681;29;20057;-74
2021/05/18 12:48:48;;;;;;;18.17;3.65;;;;;;;34.04;20.46;98806.66;3322504;29;20054;-73
2021/05/18 12:50:49;;;;;;;28.30;4.70;;;;;;;33.88;20.60;98814.34;3323281;29;20084;-72